createdAt,value
2022-12-27T00:01:45.649Z,7.18
2022-12-27T00:03:57.915Z,7.13
2022-12-27T00:06:11.138Z,7.07
2022-12-27T00:08:22.831Z,7.02
2022-12-27T00:10:35.331Z,6.98
2022-12-27T00:12:47.226Z,6.96
2022-12-27T00:14:59.423Z,6.91
2022-12-27T00:17:10.907Z,6.87
2022-12-27T00:19:23.109Z,6.83
2022-12-27T00:21:36.432Z,6.80
2022-12-27T00:23:53.110Z,6.76
2022-12-27T00:26:07.829Z,6.74
2022-12-27T00:28:19.793Z,6.72
2022-12-27T00:30:32.407Z,6.71
2022-12-27T00:32:44.402Z,6.71
2022-12-27T00:34:56.393Z,6.69
2022-12-27T00:37:08.074Z,6.67
2022-12-27T00:39:19.864Z,6.61
2022-12-27T00:41:31.671Z,6.57
2022-12-27T00:43:43.861Z,6.54
2022-12-27T00:45:57.407Z,6.49
2022-12-27T00:48:09.286Z,6.44
2022-12-27T00:50:21.479Z,6.40
2022-12-27T00:52:33.166Z,6.37
2022-12-27T00:54:45.261Z,6.34
2022-12-27T00:56:56.954Z,6.30
2022-12-27T00:59:11.708Z,6.25
2022-12-27T01:01:25.465Z,6.21
2022-12-27T01:03:38.183Z,6.15
2022-12-27T01:05:50.189Z,6.11
2022-12-27T01:08:02.247Z,6.07
2022-12-27T01:10:13.935Z,6.05
2022-12-27T01:12:26.957Z,5.99
2022-12-27T01:14:38.642Z,5.94
2022-12-27T01:16:50.151Z,5.87
2022-12-27T01:19:02.129Z,5.79
2022-12-27T01:21:16.904Z,5.71
2022-12-27T01:23:31.952Z,5.65
2022-12-27T01:25:43.942Z,5.59
2022-12-27T01:27:55.526Z,5.52
2022-12-27T01:30:08.540Z,5.47
2022-12-27T01:32:20.130Z,5.41
2022-12-27T01:34:31.819Z,5.37
2022-12-27T01:36:44.532Z,5.33
2022-12-27T01:38:56.828Z,5.28
2022-12-27T01:41:33.818Z,5.24
2022-12-27T01:43:45.704Z,5.20
2022-12-27T01:45:57.302Z,5.16
2022-12-27T01:48:20.136Z,5.12
2022-12-27T01:50:39.327Z,5.10
2022-12-27T01:53:10.037Z,5.08
2022-12-27T01:55:48.148Z,5.08
2022-12-27T01:58:20.315Z,5.06
2022-12-27T02:00:32.514Z,5.04
2022-12-27T02:02:44.797Z,5.02
2022-12-27T02:04:56.908Z,4.99
2022-12-27T02:07:08.597Z,4.98
2022-12-27T02:09:38.629Z,4.96
2022-12-27T02:11:56.945Z,4.97
2022-12-27T02:14:10.382Z,4.96
2022-12-27T02:16:22.125Z,4.96
2022-12-27T02:18:34.375Z,4.96
2022-12-27T02:21:05.415Z,4.96
2022-12-27T02:23:51.623Z,4.95
2022-12-27T02:26:34.120Z,4.93
2022-12-27T02:29:02.812Z,4.92
2022-12-27T02:31:21.868Z,4.90
2022-12-27T02:33:41.953Z,4.89
2022-12-27T02:36:03.570Z,4.87
2022-12-27T02:38:17.922Z,4.86
2022-12-27T02:40:50.909Z,4.87
2022-12-27T02:43:23.280Z,4.86
2022-12-27T02:46:00.882Z,4.87
2022-12-27T02:48:33.764Z,4.88
2022-12-27T02:51:31.323Z,4.89
2022-12-27T02:54:02.684Z,4.91
2022-12-27T02:57:09.249Z,4.91
2022-12-27T03:00:06.297Z,4.92
2022-12-27T03:02:51.196Z,4.92
2022-12-27T03:05:20.263Z,4.92
2022-12-27T03:07:44.437Z,4.94
2022-12-27T03:10:29.200Z,4.94
2022-12-27T03:13:00.036Z,4.94
2022-12-27T03:15:53.146Z,4.92
2022-12-27T03:18:15.056Z,4.92
2022-12-27T03:20:46.062Z,4.92
2022-12-27T03:23:19.772Z,4.92
2022-12-27T03:25:36.177Z,4.92
2022-12-27T03:28:09.559Z,4.92
2022-12-27T03:30:40.115Z,4.92
2022-12-27T03:33:16.015Z,4.93
2022-12-27T03:35:31.626Z,4.93
2022-12-27T03:38:05.785Z,4.94
2022-12-27T03:40:31.051Z,4.95
2022-12-27T03:43:08.585Z,4.94
2022-12-27T03:45:21.868Z,4.95
2022-12-27T03:47:55.677Z,4.95
2022-12-27T03:50:16.577Z,4.95
2022-12-27T03:52:33.688Z,4.95
2022-12-27T03:54:49.252Z,4.96
2022-12-27T03:57:04.641Z,4.97
2022-12-27T03:59:16.840Z,4.96
2022-12-27T04:01:29.861Z,4.96
2022-12-27T04:03:42.203Z,4.97
2022-12-27T04:05:54.470Z,4.98
2022-12-27T04:08:24.991Z,4.97
2022-12-27T04:10:55.832Z,4.97
2022-12-27T04:13:26.638Z,4.96
2022-12-27T04:15:57.744Z,4.95
2022-12-27T04:18:28.647Z,4.95
2022-12-27T04:20:59.485Z,4.94
2022-12-27T04:23:30.014Z,4.92
2022-12-27T04:26:00.844Z,4.94
2022-12-27T04:28:31.883Z,4.93
2022-12-27T04:31:02.765Z,4.92
2022-12-27T04:33:33.765Z,4.90
2022-12-27T04:35:45.966Z,4.89
2022-12-27T04:37:57.651Z,4.88
2022-12-27T04:40:29.000Z,4.88
2022-12-27T04:43:01.377Z,4.88
2022-12-27T04:45:32.312Z,4.88
2022-12-27T04:48:03.045Z,4.86
2022-12-27T04:50:46.578Z,4.85
2022-12-27T04:53:17.221Z,4.85
2022-12-27T04:55:30.645Z,4.84
2022-12-27T04:57:42.531Z,4.84
2022-12-27T05:00:12.955Z,4.83
2022-12-27T05:02:25.102Z,4.83
2022-12-27T05:04:39.097Z,4.82
2022-12-27T05:06:51.501Z,4.80
2022-12-27T05:09:23.388Z,4.80
2022-12-27T05:11:54.306Z,4.79
2022-12-27T05:14:10.817Z,4.78
2022-12-27T05:16:23.223Z,4.78
2022-12-27T05:18:36.737Z,4.79
2022-12-27T05:20:48.424Z,4.80
2022-12-27T05:23:19.364Z,4.82
2022-12-27T05:25:38.493Z,4.83
2022-12-27T05:27:50.655Z,4.84
2022-12-27T05:30:02.642Z,4.87
2022-12-27T05:32:14.198Z,4.87
2022-12-27T05:34:25.896Z,4.87
2022-12-27T05:36:37.779Z,4.86
2022-12-27T05:38:50.631Z,4.86
2022-12-27T05:41:03.307Z,4.83
2022-12-27T05:43:15.199Z,4.81
2022-12-27T05:45:28.321Z,4.80
2022-12-27T05:47:41.236Z,4.78
2022-12-27T05:49:53.135Z,4.75
2022-12-27T05:52:05.127Z,4.73
2022-12-27T05:54:16.717Z,4.68
2022-12-27T05:56:28.294Z,4.66
2022-12-27T05:58:40.187Z,4.63
2022-12-27T06:00:51.726Z,4.60
2022-12-27T06:03:04.084Z,4.57
2022-12-27T06:05:16.405Z,4.52
2022-12-27T06:07:28.066Z,4.46
2022-12-27T06:09:40.774Z,4.42
2022-12-27T06:11:52.666Z,4.36
2022-12-27T06:14:04.252Z,4.29
2022-12-27T06:16:16.911Z,4.25
2022-12-27T06:18:31.109Z,4.19
2022-12-27T06:20:42.694Z,4.14
2022-12-27T06:22:54.349Z,4.09
2022-12-27T06:25:10.815Z,4.05
2022-12-27T06:27:25.850Z,4.02
2022-12-27T06:29:37.533Z,3.98
2022-12-27T06:31:49.766Z,3.96
2022-12-27T06:34:01.528Z,3.93
2022-12-27T06:36:16.390Z,3.88
2022-12-27T06:38:28.381Z,3.86
2022-12-27T06:40:40.275Z,3.85
2022-12-27T06:42:52.164Z,3.85
2022-12-27T06:45:05.991Z,3.82
2022-12-27T06:47:17.810Z,3.80
2022-12-27T06:49:30.100Z,3.77
2022-12-27T06:51:41.781Z,3.76
2022-12-27T06:53:53.578Z,3.75
2022-12-27T06:56:14.118Z,3.72
2022-12-27T06:58:26.165Z,3.72
2022-12-27T07:00:38.363Z,3.72
2022-12-27T07:02:50.530Z,3.69
2022-12-27T07:05:03.169Z,3.68
2022-12-27T07:07:16.020Z,3.65
2022-12-27T07:09:28.187Z,3.65
2022-12-27T07:11:40.081Z,3.63
2022-12-27T07:13:53.809Z,3.63
2022-12-27T07:16:07.116Z,3.60
2022-12-27T07:18:18.937Z,3.60
2022-12-27T07:20:30.512Z,3.59
2022-12-27T07:22:42.301Z,3.57
2022-12-27T07:24:54.194Z,3.55
2022-12-27T07:27:06.291Z,3.54
2022-12-27T07:29:18.287Z,3.54
2022-12-27T07:31:32.610Z,3.53
2022-12-27T07:33:45.352Z,3.54
2022-12-27T07:36:02.360Z,3.53
2022-12-27T07:38:14.046Z,3.52
2022-12-27T07:40:26.312Z,3.53
2022-12-27T07:42:38.241Z,3.54
2022-12-27T07:44:50.036Z,3.55
2022-12-27T07:47:02.332Z,3.55
2022-12-27T07:49:17.867Z,3.53
2022-12-27T07:51:30.325Z,3.53
2022-12-27T07:53:43.042Z,3.53
2022-12-27T07:55:55.247Z,3.52
2022-12-27T07:58:07.323Z,3.54
2022-12-27T08:00:19.358Z,3.58
2022-12-27T08:02:31.179Z,3.61
2022-12-27T08:04:43.346Z,3.67
2022-12-27T08:07:00.105Z,3.72
2022-12-27T08:09:16.041Z,3.81
2022-12-27T08:11:27.835Z,3.92
2022-12-27T08:13:39.549Z,4.03
2022-12-27T08:15:52.983Z,4.09
2022-12-27T08:18:05.146Z,4.17
2022-12-27T08:20:17.059Z,4.24
2022-12-27T08:22:29.033Z,4.25
2022-12-27T08:24:41.744Z,4.29
2022-12-27T08:26:53.412Z,4.32
2022-12-27T08:29:05.142Z,4.34
2022-12-27T08:31:16.940Z,4.34
2022-12-27T08:33:29.644Z,4.40
2022-12-27T08:35:54.626Z,4.48
2022-12-27T08:38:07.742Z,4.55
2022-12-27T08:40:19.222Z,4.62
2022-12-27T08:42:30.931Z,4.65
2022-12-27T08:44:42.543Z,4.71
2022-12-27T08:46:54.389Z,4.74
2022-12-27T08:49:06.383Z,4.80
2022-12-27T08:51:30.231Z,4.87
2022-12-27T08:53:45.129Z,4.85
2022-12-27T08:55:57.934Z,4.81
2022-12-27T08:58:16.130Z,4.80
2022-12-27T09:00:29.094Z,4.82
2022-12-27T09:02:41.271Z,4.80
2022-12-27T09:04:53.293Z,4.76
2022-12-27T09:07:05.587Z,4.72
2022-12-27T09:09:17.992Z,4.69
2022-12-27T09:11:33.392Z,4.66
2022-12-27T09:13:46.392Z,4.65
2022-12-27T09:15:58.250Z,4.60
2022-12-27T09:18:11.402Z,4.57
2022-12-27T09:20:23.952Z,4.54
2022-12-27T09:22:35.984Z,4.51
2022-12-27T09:24:48.305Z,4.48
2022-12-27T09:27:00.196Z,4.46
2022-12-27T09:29:12.501Z,4.41
2022-12-27T09:31:25.976Z,4.38
2022-12-27T09:33:38.960Z,4.36
2022-12-27T09:35:50.834Z,4.35
2022-12-27T09:38:03.041Z,4.32
2022-12-27T09:40:17.897Z,4.31
2022-12-27T09:43:04.701Z,4.31
2022-12-27T09:45:49.274Z,4.30
2022-12-27T09:48:12.227Z,4.35
2022-12-27T09:50:50.081Z,4.40
2022-12-27T09:53:17.563Z,4.66
2022-12-27T09:55:37.249Z,5.03
2022-12-27T09:57:51.097Z,5.04
2022-12-27T10:00:10.936Z,4.97
2022-12-27T10:02:26.494Z,4.93
2022-12-27T10:05:17.703Z,5.12
2022-12-27T10:07:41.334Z,5.49
2022-12-27T10:10:19.029Z,5.72
2022-12-27T10:12:59.079Z,5.70
2022-12-27T10:15:13.939Z,5.66
2022-12-27T10:17:52.696Z,5.53
2022-12-27T10:20:25.647Z,5.41
2022-12-27T10:22:48.213Z,5.64
2022-12-27T10:25:03.974Z,5.92
2022-12-27T10:27:27.847Z,5.95
2022-12-27T10:29:40.049Z,5.84
2022-12-27T10:31:53.373Z,5.81
2022-12-27T10:34:10.432Z,5.74
2022-12-27T10:36:27.912Z,5.65
2022-12-27T10:38:40.415Z,5.55
2022-12-27T10:41:08.145Z,5.45
2022-12-27T10:43:29.720Z,5.37
2022-12-27T10:45:43.139Z,5.32
2022-12-27T10:47:58.624Z,5.28
2022-12-27T10:50:13.678Z,5.25
2022-12-27T10:52:25.458Z,5.22
2022-12-27T10:54:51.410Z,5.21
2022-12-27T10:57:23.958Z,5.18
2022-12-27T10:59:36.360Z,5.17
2022-12-27T11:02:07.442Z,5.17
2022-12-27T11:04:24.422Z,5.14
2022-12-27T11:06:36.309Z,5.11
2022-12-27T11:08:49.018Z,5.08
2022-12-27T11:11:24.669Z,5.03
2022-12-27T11:13:36.663Z,5.00
2022-12-27T11:15:59.025Z,4.97
2022-12-27T11:18:18.990Z,4.95
2022-12-27T11:20:40.841Z,4.92
2022-12-27T11:22:57.068Z,4.93
2022-12-27T11:25:13.909Z,4.94
2022-12-27T11:27:29.091Z,4.93
2022-12-27T11:29:45.614Z,4.92
2022-12-27T11:32:04.291Z,4.94
2022-12-27T11:34:21.605Z,4.94
2022-12-27T11:36:40.761Z,4.95
2022-12-27T11:38:52.722Z,4.95
2022-12-27T11:41:13.918Z,4.96
2022-12-27T11:43:30.832Z,4.98
2022-12-27T11:45:50.197Z,5.02
2022-12-27T11:48:33.119Z,5.05
2022-12-27T11:50:51.443Z,5.08
2022-12-27T11:53:16.662Z,5.10
2022-12-27T11:55:49.444Z,5.10
2022-12-27T11:58:28.370Z,5.08
2022-12-27T12:00:53.879Z,5.11
2022-12-27T12:03:08.888Z,5.14
2022-12-27T12:05:50.742Z,5.13
2022-12-27T12:08:19.019Z,5.10
2022-12-27T12:11:04.911Z,5.10
2022-12-27T12:13:51.110Z,5.09
2022-12-27T12:16:26.493Z,5.07
2022-12-27T12:18:52.572Z,5.04
2022-12-27T12:21:27.307Z,5.02
2022-12-27T12:23:48.722Z,5.00
2022-12-27T12:26:09.004Z,4.99
2022-12-27T12:28:57.646Z,4.98
2022-12-27T12:31:33.217Z,4.94
2022-12-27T12:33:58.104Z,4.94
2022-12-27T12:36:27.199Z,4.93
2022-12-27T12:38:51.470Z,4.93
2022-12-27T12:41:27.336Z,4.93
2022-12-27T12:43:59.605Z,4.93
2022-12-27T12:46:39.145Z,4.94
2022-12-27T12:49:28.822Z,4.92
2022-12-27T12:52:04.066Z,4.90
2022-12-27T12:54:44.420Z,4.89
2022-12-27T12:57:26.422Z,4.87
2022-12-27T13:00:00.535Z,4.84
2022-12-27T13:02:33.254Z,4.83
2022-12-27T13:05:20.741Z,4.82
2022-12-27T13:08:02.061Z,4.80
2022-12-27T13:10:32.352Z,4.78
2022-12-27T13:13:06.875Z,4.76
2022-12-27T13:15:53.601Z,4.75
2022-12-27T13:18:15.896Z,4.73
2022-12-27T13:20:41.648Z,4.73
2022-12-27T13:23:24.459Z,4.74
2022-12-27T13:26:04.414Z,4.75
2022-12-27T13:28:33.194Z,4.75
2022-12-27T13:31:07.558Z,4.74
2022-12-27T13:33:51.756Z,4.74
2022-12-27T13:36:30.889Z,4.73
2022-12-27T13:39:13.810Z,4.73
2022-12-27T13:41:58.572Z,4.72
2022-12-27T13:44:21.120Z,4.71
2022-12-27T13:46:54.004Z,4.71
2022-12-27T13:49:40.303Z,4.70
2022-12-27T13:51:56.286Z,4.69
2022-12-27T13:54:37.881Z,4.70
2022-12-27T13:56:54.811Z,4.70
2022-12-27T13:59:27.368Z,4.70
2022-12-27T14:02:11.464Z,4.70
2022-12-27T14:04:46.034Z,4.71
2022-12-27T14:07:31.971Z,4.70
2022-12-27T14:10:06.847Z,4.70
2022-12-27T14:12:49.806Z,4.70
2022-12-27T14:15:06.796Z,4.69
2022-12-27T14:17:56.470Z,4.68
2022-12-27T14:20:29.870Z,4.67
2022-12-27T14:23:02.848Z,4.67
2022-12-27T14:25:48.148Z,4.67
2022-12-27T14:28:35.870Z,4.90
2022-12-27T14:31:25.405Z,5.60
2022-12-27T14:33:46.144Z,6.05
2022-12-27T14:36:36.225Z,6.34
2022-12-27T14:39:15.144Z,6.11
2022-12-27T14:42:05.369Z,5.88
2022-12-27T14:44:44.982Z,5.62
2022-12-27T14:47:00.049Z,5.42
2022-12-27T14:50:08.057Z,5.29
2022-12-27T14:52:49.168Z,5.15
2022-12-27T14:56:00.179Z,5.06
2022-12-27T14:58:33.332Z,4.95
2022-12-27T15:01:11.648Z,4.89
2022-12-27T15:03:55.267Z,4.84
2022-12-27T15:07:02.844Z,4.80
2022-12-27T15:09:56.513Z,4.75
2022-12-27T15:12:31.999Z,4.74
2022-12-27T15:15:37.122Z,4.73
2022-12-27T15:18:06.552Z,4.71
2022-12-27T15:20:32.222Z,4.70
2022-12-27T15:23:17.403Z,4.69
2022-12-27T15:26:03.178Z,4.68
2022-12-27T15:28:22.573Z,4.67
2022-12-27T15:30:52.905Z,4.67
2022-12-27T15:33:42.960Z,4.67
2022-12-27T15:36:03.042Z,4.65
2022-12-27T15:38:18.075Z,4.64
2022-12-27T15:40:34.155Z,4.63
2022-12-27T15:42:58.388Z,4.62
2022-12-27T15:45:22.561Z,4.61
2022-12-27T15:48:10.617Z,4.61
2022-12-27T15:50:53.315Z,4.61
2022-12-27T15:54:07.758Z,4.63
2022-12-27T15:56:57.602Z,4.62
2022-12-27T16:02:54.784Z,4.60
2022-12-27T16:05:20.858Z,4.60
2022-12-27T16:07:45.295Z,4.61
2022-12-27T16:09:58.953Z,4.61
2022-12-27T16:12:37.299Z,4.62
2022-12-27T16:15:30.182Z,4.63
2022-12-27T16:17:55.881Z,4.64
2022-12-27T16:20:26.798Z,4.65
2022-12-27T16:22:43.196Z,4.66
2022-12-27T16:24:56.520Z,4.66
2022-12-27T16:27:20.407Z,4.66
2022-12-27T16:29:43.349Z,4.65
2022-12-27T16:32:26.776Z,4.64
2022-12-27T16:34:39.387Z,4.64
2022-12-27T16:36:53.890Z,4.63
2022-12-27T16:39:11.913Z,4.62
2022-12-27T16:41:32.996Z,4.62
2022-12-27T16:44:04.906Z,4.61
2022-12-27T16:46:33.754Z,4.59
2022-12-27T16:49:08.726Z,4.58
2022-12-27T16:51:36.432Z,4.58
2022-12-27T16:54:29.696Z,4.58
2022-12-27T16:56:45.067Z,4.57
2022-12-27T16:58:58.057Z,4.57
2022-12-27T17:01:19.090Z,4.57
2022-12-27T17:03:37.152Z,4.57
2022-12-27T17:06:30.068Z,4.56
2022-12-27T17:08:24.569Z,4.53
2022-12-27T17:10:42.709Z,4.52
2022-12-27T17:13:02.999Z,4.50
2022-12-27T17:15:15.324Z,4.48
2022-12-27T17:17:28.242Z,4.48
2022-12-27T17:19:48.712Z,4.48
2022-12-27T17:22:05.115Z,4.48
2022-12-27T17:24:19.977Z,4.49
2022-12-27T17:26:46.310Z,4.49
2022-12-27T17:29:17.241Z,4.50
2022-12-27T17:32:00.772Z,4.52
2022-12-27T17:34:44.206Z,4.53
2022-12-27T17:37:09.311Z,4.54
2022-12-27T17:39:49.172Z,4.55
2022-12-27T17:42:34.948Z,4.55
2022-12-27T17:45:04.963Z,4.56
2022-12-27T17:47:45.111Z,4.58
2022-12-27T17:50:01.306Z,4.57
2022-12-27T17:52:37.777Z,4.56
2022-12-27T17:55:08.923Z,4.51
2022-12-27T17:57:40.265Z,4.46
2022-12-27T17:59:52.490Z,4.42
2022-12-27T18:02:18.551Z,4.39
2022-12-27T18:04:35.879Z,4.35
2022-12-27T18:06:48.009Z,4.30
2022-12-27T18:08:59.696Z,4.25
2022-12-27T18:11:15.797Z,4.21
2022-12-27T18:13:32.611Z,4.18
2022-12-27T18:15:46.851Z,4.15
2022-12-27T18:18:04.170Z,4.12
2022-12-27T18:20:28.845Z,4.09
2022-12-27T18:22:41.670Z,4.06
2022-12-27T18:24:53.784Z,4.04
2022-12-27T18:27:33.946Z,3.99
2022-12-27T18:29:52.334Z,3.96
2022-12-27T18:32:33.691Z,3.94
2022-12-27T18:34:57.857Z,3.93
2022-12-27T18:37:13.609Z,3.90
2022-12-27T18:39:39.379Z,3.88
2022-12-27T18:41:54.714Z,3.85
2022-12-27T18:44:15.231Z,3.83
2022-12-27T18:46:34.262Z,3.77
2022-12-27T18:48:49.615Z,3.74
2022-12-27T18:51:03.004Z,3.70
2022-12-27T18:53:36.412Z,3.67
2022-12-27T18:55:57.079Z,3.62
2022-12-27T18:58:20.527Z,3.58
2022-12-27T19:01:06.737Z,3.54
2022-12-27T19:03:21.254Z,3.50
2022-12-27T19:05:36.533Z,3.47
2022-12-27T19:08:14.959Z,3.45
2022-12-27T19:10:29.095Z,3.42
2022-12-27T19:12:56.436Z,3.40
2022-12-27T19:15:22.698Z,3.36
2022-12-27T19:17:38.570Z,3.33
2022-12-27T19:19:53.515Z,3.32
2022-12-27T19:22:30.095Z,3.29
2022-12-27T19:24:42.160Z,3.26
2022-12-27T19:26:55.819Z,3.24
2022-12-27T19:29:14.894Z,3.23
2022-12-27T19:31:27.921Z,3.21
2022-12-27T19:33:40.318Z,3.19
2022-12-27T19:35:53.331Z,3.18
2022-12-27T19:38:05.227Z,3.17
2022-12-27T19:40:17.628Z,3.14
2022-12-27T19:42:35.127Z,3.12
2022-12-27T19:44:47.160Z,3.10
2022-12-27T19:46:59.757Z,3.07
2022-12-27T19:51:43.616Z,3.00
2022-12-27T19:53:57.998Z,2.98
2022-12-27T19:56:11.931Z,2.95
2022-12-27T19:58:26.676Z,2.92
2022-12-27T20:00:38.244Z,2.92
2022-12-27T20:02:49.901Z,2.92
2022-12-27T20:05:01.827Z,2.92
2022-12-27T20:07:21.507Z,2.90
2022-12-27T20:09:33.600Z,2.87
2022-12-27T20:11:47.733Z,2.86
2022-12-27T20:14:00.281Z,2.85
2022-12-27T20:16:14.625Z,2.83
2022-12-27T20:18:27.212Z,2.82
2022-12-27T20:20:39.611Z,2.82
2022-12-27T20:22:51.103Z,2.81
2022-12-27T20:25:03.393Z,2.79
2022-12-27T20:27:15.179Z,2.77
2022-12-27T20:29:27.794Z,2.76
2022-12-27T20:31:44.746Z,2.72
2022-12-27T20:33:57.618Z,2.69
2022-12-27T20:36:11.362Z,2.66
2022-12-27T20:38:24.445Z,2.64
2022-12-27T20:40:36.776Z,2.64
2022-12-27T20:42:49.400Z,2.61
2022-12-27T20:45:05.740Z,2.59
2022-12-27T20:47:22.659Z,2.57
2022-12-27T20:49:36.227Z,2.53
2022-12-27T20:51:51.937Z,2.50
2022-12-27T20:54:09.451Z,2.47
2022-12-27T20:56:26.438Z,2.44
2022-12-27T20:58:43.865Z,2.40
2022-12-27T21:01:07.666Z,2.37
2022-12-27T21:03:24.381Z,2.34
2022-12-27T21:05:39.034Z,2.33
2022-12-27T21:07:55.662Z,2.31
2022-12-27T21:10:12.429Z,2.28
2022-12-27T21:12:27.682Z,2.27
2022-12-27T21:14:42.143Z,2.25
2022-12-27T21:16:59.903Z,2.22
2022-12-27T21:19:18.835Z,2.21
2022-12-27T21:21:38.525Z,2.19
2022-12-27T21:23:55.113Z,2.18
2022-12-27T21:26:19.338Z,2.16
2022-12-27T21:28:36.180Z,2.15
2022-12-27T21:30:59.652Z,2.11
2022-12-27T21:33:16.636Z,2.07
2022-12-27T21:35:33.421Z,2.06
2022-12-27T21:37:49.740Z,2.04
2022-12-27T21:40:06.996Z,2.02
2022-12-27T21:42:23.631Z,2.00
2022-12-27T21:44:38.977Z,2.02
2022-12-27T21:46:51.368Z,2.15
2022-12-27T21:49:09.212Z,2.26
2022-12-27T21:51:20.986Z,2.34
2022-12-27T21:53:33.187Z,2.36
2022-12-27T21:55:45.898Z,2.33
2022-12-27T21:57:57.997Z,2.29
2022-12-27T22:00:11.222Z,2.28
2022-12-27T22:02:23.787Z,2.23
2022-12-27T22:04:36.132Z,2.17
2022-12-27T22:06:48.317Z,2.12
2022-12-27T22:09:06.373Z,2.05
2022-12-27T22:11:20.985Z,2.01
2022-12-27T22:13:33.530Z,1.95
2022-12-27T22:15:55.273Z,1.91
2022-12-27T22:18:07.144Z,1.86
2022-12-27T22:20:18.832Z,1.83
2022-12-27T22:22:30.932Z,1.81
2022-12-27T22:24:42.529Z,1.79
2022-12-27T22:26:54.412Z,1.76
2022-12-27T22:29:06.599Z,1.74
2022-12-27T22:31:25.025Z,1.70
2022-12-27T22:33:37.658Z,1.66
2022-12-27T22:35:49.562Z,1.62
2022-12-27T22:38:01.557Z,1.60
2022-12-27T22:40:30.675Z,1.58
2022-12-27T22:42:43.355Z,1.53
2022-12-27T22:44:55.042Z,1.51
2022-12-27T22:47:25.874Z,1.51
2022-12-27T22:49:38.694Z,1.48
2022-12-27T22:51:50.994Z,1.45
2022-12-27T22:54:04.881Z,1.40
2022-12-27T22:56:19.696Z,1.39
2022-12-27T22:58:32.417Z,1.38
2022-12-27T23:00:44.604Z,1.36
2022-12-27T23:02:56.195Z,1.35
2022-12-27T23:05:08.081Z,1.34
2022-12-27T23:07:21.333Z,1.31
2022-12-27T23:09:53.064Z,1.27
2022-12-27T23:12:06.633Z,1.26
2022-12-27T23:14:18.691Z,1.25
2022-12-27T23:16:41.878Z,1.21
2022-12-27T23:18:54.255Z,1.16
2022-12-27T23:21:20.638Z,1.14
2022-12-27T23:23:36.574Z,1.11
2022-12-27T23:25:48.568Z,1.08
2022-12-27T23:28:00.367Z,1.06
2022-12-27T23:30:13.384Z,1.03
2022-12-27T23:32:25.064Z,1.01
2022-12-27T23:34:37.264Z,0.99
2022-12-27T23:36:49.153Z,0.96
2022-12-27T23:39:01.148Z,0.94
2022-12-27T23:41:22.768Z,0.93
2022-12-27T23:43:54.812Z,0.92
2022-12-27T23:46:12.180Z,0.89
2022-12-27T23:48:24.457Z,0.88
2022-12-27T23:50:36.348Z,0.87
2022-12-27T23:52:48.548Z,0.86
2022-12-27T23:55:00.233Z,0.86
2022-12-27T23:57:20.693Z,0.84
2022-12-27T23:59:34.668Z,0.82
